createdAt,value
2022-08-30T00:01:30.761Z,31.95
2022-08-30T00:04:32.730Z,31.40
2022-08-30T00:07:35.137Z,31.63
2022-08-30T00:10:38.669Z,28.43
2022-08-30T00:13:42.597Z,24.25
2022-08-30T00:16:44.756Z,29.58
2022-08-30T00:19:46.689Z,25.27
2022-08-30T00:22:48.785Z,26.63
2022-08-30T00:25:50.652Z,21.98
2022-08-30T00:28:52.635Z,24.38
2022-08-30T00:31:54.524Z,24.90
2022-08-30T00:34:56.696Z,25.50
2022-08-30T00:37:58.823Z,23.17
2022-08-30T00:41:01.915Z,34.58
2022-08-30T00:44:04.525Z,27.65
2022-08-30T00:47:06.630Z,26.17
2022-08-30T00:50:10.261Z,34.90
2022-08-30T00:53:18.956Z,26.83
2022-08-30T00:56:23.436Z,34.92
2022-08-30T00:59:27.574Z,31.58
2022-08-30T01:02:31.319Z,23.55
2022-08-30T01:05:33.330Z,25.67
2022-08-30T01:08:35.705Z,22.70
2022-08-30T01:11:38.642Z,23.70
2022-08-30T01:14:40.670Z,29.38
2022-08-30T01:17:44.776Z,23.52
2022-08-30T01:21:01.401Z,29.05
2022-08-30T01:24:04.816Z,26.52
2022-08-30T01:27:06.715Z,25.92
2022-08-30T01:30:10.454Z,30.85
2022-08-30T01:33:13.372Z,28.77
2022-08-30T01:36:17.350Z,27.60
2022-08-30T01:39:19.425Z,27.58
2022-08-30T01:42:22.313Z,30.35
2022-08-30T01:45:24.270Z,40.22
2022-08-30T01:48:30.849Z,26.80
2022-08-30T01:51:33.303Z,26.40
2022-08-30T01:54:38.225Z,33.78
2022-08-30T01:57:41.430Z,27.42
2022-08-30T02:00:43.379Z,29.35
2022-08-30T02:03:46.415Z,39.92
2022-08-30T02:06:49.228Z,37.40
2022-08-30T02:09:52.375Z,52.55
2022-08-30T02:12:54.282Z,39.78
2022-08-30T02:15:56.397Z,38.58
2022-08-30T02:18:58.892Z,24.10
2022-08-30T02:22:00.834Z,24.85
2022-08-30T02:25:06.902Z,20.70
2022-08-30T02:28:14.963Z,24.02
2022-08-30T02:31:21.047Z,22.77
2022-08-30T02:34:23.146Z,23.70
2022-08-30T02:37:25.084Z,30.90
2022-08-30T02:40:27.075Z,27.48
2022-08-30T02:43:29.124Z,21.00
2022-08-30T02:46:33.422Z,22.02
2022-08-30T02:49:37.047Z,23.23
2022-08-30T02:52:38.975Z,24.52
2022-08-30T02:55:42.577Z,25.08
2022-08-30T02:58:46.268Z,25.83
2022-08-30T03:01:49.062Z,27.45
2022-08-30T03:04:51.259Z,27.00
2022-08-30T03:07:54.227Z,28.73
2022-08-30T03:10:57.277Z,23.02
2022-08-30T03:13:59.559Z,34.42
2022-08-30T03:17:01.592Z,31.50
2022-08-30T03:20:04.998Z,22.92
2022-08-30T03:23:06.899Z,29.05
2022-08-30T03:26:12.195Z,24.55
2022-08-30T03:29:14.124Z,25.80
2022-08-30T03:32:16.059Z,26.77
2022-08-30T03:35:18.664Z,24.90
2022-08-30T03:38:20.585Z,23.45
2022-08-30T03:41:22.527Z,23.20
2022-08-30T03:44:24.957Z,25.87
2022-08-30T03:47:26.853Z,28.00
2022-08-30T03:50:30.484Z,22.10
2022-08-30T03:53:32.828Z,29.92
2022-08-30T03:56:34.754Z,22.37
2022-08-30T03:59:36.699Z,37.97
2022-08-30T04:02:39.298Z,25.10
2022-08-30T04:05:41.272Z,20.52
2022-08-30T04:08:44.873Z,23.00
2022-08-30T04:11:47.780Z,21.00
2022-08-30T04:14:49.854Z,23.27
2022-08-30T04:17:53.842Z,27.67
2022-08-30T04:20:56.070Z,24.23
2022-08-30T04:23:57.973Z,26.60
2022-08-30T04:27:00.151Z,31.02
2022-08-30T04:30:03.558Z,19.65
2022-08-30T04:33:05.661Z,26.52
2022-08-30T04:36:09.322Z,21.92
2022-08-30T04:39:11.283Z,26.25
2022-08-30T04:42:13.236Z,35.25
2022-08-30T04:45:16.727Z,29.55
2022-08-30T04:48:18.917Z,25.95
2022-08-30T04:51:20.857Z,27.23
2022-08-30T04:54:22.813Z,22.60
2022-08-30T04:57:26.258Z,31.23
2022-08-30T05:00:28.241Z,27.95
2022-08-30T05:03:30.533Z,27.42
2022-08-30T05:06:32.429Z,29.20
2022-08-30T05:09:34.334Z,22.98
2022-08-30T05:12:36.218Z,27.55
2022-08-30T05:15:40.323Z,25.60
2022-08-30T05:18:42.227Z,33.28
2022-08-30T05:21:44.178Z,23.83
2022-08-30T05:24:46.070Z,24.50
2022-08-30T05:27:48.195Z,19.92
2022-08-30T05:30:50.122Z,21.50
2022-08-30T05:33:53.071Z,22.40
2022-08-30T05:36:55.010Z,25.17
2022-08-30T05:39:57.560Z,24.52
2022-08-30T05:43:00.280Z,23.85
2022-08-30T05:46:13.162Z,19.75
2022-08-30T05:49:15.820Z,23.25
2022-08-30T05:52:18.370Z,21.27
2022-08-30T05:55:20.418Z,26.90
2022-08-30T05:58:22.431Z,28.52
2022-08-30T06:01:30.122Z,28.50
2022-08-30T06:04:32.149Z,26.45
2022-08-30T06:07:35.178Z,22.42
2022-08-30T06:13:40.033Z,24.65
2022-08-30T06:19:47.935Z,27.67
2022-08-30T06:22:49.886Z,25.92
2022-08-30T06:25:51.764Z,24.98
2022-08-30T06:28:53.882Z,21.15
2022-08-30T06:31:58.367Z,19.48
2022-08-30T06:35:00.374Z,16.52
2022-08-30T06:38:02.787Z,20.77
2022-08-30T06:41:09.733Z,22.63
2022-08-30T06:44:11.645Z,21.65
2022-08-30T06:47:13.641Z,21.20
2022-08-30T06:50:17.592Z,26.23
2022-08-30T06:53:19.935Z,20.23
2022-08-30T06:56:23.787Z,19.20
2022-08-30T06:59:27.034Z,23.33
2022-08-30T07:02:29.273Z,20.75
2022-08-30T07:05:32.712Z,16.90
2022-08-30T07:08:34.984Z,24.60
2022-08-30T07:11:38.050Z,23.73
2022-08-30T07:14:40.678Z,19.00
2022-08-30T07:18:01.268Z,18.67
2022-08-30T07:21:15.880Z,22.52
2022-08-30T07:24:18.765Z,15.93
2022-08-30T07:30:23.441Z,12.13
2022-08-30T07:33:25.582Z,16.63
2022-08-30T07:36:27.523Z,14.07
2022-08-30T07:39:29.446Z,14.02
2022-08-30T07:42:34.176Z,14.15
2022-08-30T07:45:38.331Z,14.50
2022-08-30T07:48:40.276Z,17.65
2022-08-30T07:51:42.525Z,23.00
2022-08-30T07:54:44.578Z,20.23
2022-08-30T07:57:47.733Z,16.52
2022-08-30T08:00:49.698Z,15.40
2022-08-30T08:03:52.123Z,11.45
2022-08-30T08:06:55.101Z,16.67
2022-08-30T08:09:57.001Z,14.45
2022-08-30T08:12:59.291Z,14.15
2022-08-30T08:16:01.345Z,17.15
2022-08-30T08:19:08.570Z,19.03
2022-08-30T08:22:25.755Z,13.05
2022-08-30T08:25:27.793Z,13.05
2022-08-30T08:28:30.035Z,12.00
2022-08-30T08:31:33.767Z,11.52
2022-08-30T08:34:36.757Z,16.75
2022-08-30T08:40:55.687Z,13.75
2022-08-30T08:43:58.079Z,13.52
2022-08-30T08:47:13.928Z,15.63
2022-08-30T08:50:20.113Z,15.68
2022-08-30T08:53:46.217Z,15.68
2022-08-30T08:56:48.996Z,19.13
2022-08-30T08:59:54.352Z,13.20
2022-08-30T09:03:03.063Z,13.10
2022-08-30T09:06:15.073Z,12.95
2022-08-30T09:09:20.524Z,10.02
2022-08-30T09:12:24.766Z,12.13
2022-08-30T09:15:33.188Z,14.77
2022-08-30T09:18:52.664Z,19.90
2022-08-30T09:22:31.261Z,14.73
2022-08-30T09:25:33.162Z,13.55
2022-08-30T09:28:50.506Z,13.30
2022-08-30T09:32:22.486Z,9.30
2022-08-30T09:35:34.761Z,14.85
2022-08-30T09:38:36.798Z,13.93
2022-08-30T09:41:42.386Z,13.13
2022-08-30T09:44:44.267Z,18.60
2022-08-30T09:47:46.194Z,12.37
2022-08-30T09:50:55.010Z,16.53
2022-08-30T09:54:20.577Z,11.70
2022-08-30T09:57:39.607Z,19.05
2022-08-30T10:00:50.893Z,16.98
2022-08-30T10:04:08.430Z,15.13
2022-08-30T10:07:22.815Z,15.10
2022-08-30T10:10:45.623Z,13.02
2022-08-30T10:14:12.536Z,12.57
2022-08-30T10:17:41.883Z,16.92
2022-08-30T10:20:52.882Z,12.38
2022-08-30T10:24:02.901Z,10.63
2022-08-30T10:27:19.221Z,9.88
2022-08-30T10:30:24.107Z,18.42
2022-08-30T10:33:42.709Z,11.30
2022-08-30T10:36:50.934Z,12.10
2022-08-30T10:40:28.323Z,13.50
2022-08-30T10:43:51.157Z,16.08
2022-08-30T10:47:14.434Z,13.85
2022-08-30T10:50:42.575Z,15.82
2022-08-30T10:53:53.610Z,14.60
2022-08-30T10:56:56.500Z,17.92
2022-08-30T11:00:07.322Z,13.30
2022-08-30T11:03:42.733Z,12.60
2022-08-30T11:06:56.472Z,14.77
2022-08-30T11:10:16.157Z,18.40
2022-08-30T11:13:23.193Z,12.98
2022-08-30T11:16:37.392Z,12.25
2022-08-30T11:19:41.679Z,16.92
2022-08-30T11:23:18.850Z,17.15
2022-08-30T11:26:51.495Z,11.48
2022-08-30T11:29:53.443Z,18.90
2022-08-30T11:33:02.448Z,12.50
2022-08-30T11:36:04.417Z,11.43
2022-08-30T11:39:09.941Z,18.37
2022-08-30T11:42:17.920Z,18.23
2022-08-30T11:45:26.760Z,10.05
2022-08-30T11:48:54.277Z,12.02
2022-08-30T11:52:27.937Z,15.98
2022-08-30T11:59:16.326Z,10.80
2022-08-30T12:03:01.573Z,15.18
2022-08-30T12:06:07.656Z,12.65
2022-08-30T12:09:30.796Z,13.85
2022-08-30T12:12:39.398Z,12.70
2022-08-30T12:16:06.359Z,13.02
2022-08-30T12:19:20.877Z,8.45
2022-08-30T12:22:23.107Z,11.27
2022-08-30T12:25:33.604Z,9.93
2022-08-30T12:28:37.474Z,9.10
2022-08-30T12:31:49.925Z,10.30
2022-08-30T12:34:55.714Z,16.02
2022-08-30T12:38:05.991Z,15.75
2022-08-30T12:41:08.059Z,8.68
2022-08-30T12:44:23.294Z,10.65
2022-08-30T12:47:41.984Z,10.45
2022-08-30T12:50:57.059Z,14.13
2022-08-30T12:54:30.261Z,13.05
2022-08-30T12:57:42.959Z,11.15
2022-08-30T13:00:47.225Z,11.43
2022-08-30T13:04:23.143Z,14.40
2022-08-30T13:07:27.404Z,11.45
2022-08-30T13:10:29.335Z,14.40
2022-08-30T13:13:33.875Z,12.70
2022-08-30T13:16:40.338Z,11.70
2022-08-30T13:19:59.129Z,9.40
2022-08-30T13:23:07.589Z,9.48
2022-08-30T13:26:11.497Z,10.65
2022-08-30T13:32:21.239Z,13.80
2022-08-30T13:35:24.002Z,12.68
2022-08-30T13:41:30.114Z,13.38
2022-08-30T13:44:36.379Z,13.93
2022-08-30T13:47:46.926Z,10.93
2022-08-30T13:50:48.895Z,9.07
2022-08-30T13:53:53.301Z,12.70
2022-08-30T13:56:56.651Z,11.40
2022-08-30T13:59:59.184Z,15.80
2022-08-30T14:03:02.008Z,10.57
2022-08-30T14:06:31.853Z,14.48
2022-08-30T14:09:29.148Z,14.90
2022-08-30T14:19:19.247Z,9.80
2022-08-30T14:22:21.225Z,9.75
2022-08-30T14:25:23.520Z,10.38
2022-08-30T14:28:28.622Z,10.88
2022-08-30T14:31:32.612Z,8.95
2022-08-30T14:34:35.623Z,11.88
2022-08-30T14:37:37.555Z,9.27
2022-08-30T14:40:41.401Z,10.80
2022-08-30T14:43:43.699Z,17.88
2022-08-30T14:49:47.986Z,11.00
2022-08-30T14:52:49.899Z,11.68
2022-08-30T14:55:51.882Z,11.77
2022-08-30T14:59:00.302Z,11.57
2022-08-30T15:02:03.344Z,15.88
2022-08-30T15:05:06.965Z,12.70
2022-08-30T15:08:10.480Z,10.13
2022-08-30T15:11:14.881Z,15.07
2022-08-30T15:14:17.320Z,11.10
2022-08-30T15:17:38.511Z,11.55
2022-08-30T15:20:50.142Z,10.73
2022-08-30T15:23:52.625Z,11.68
2022-08-30T15:26:54.716Z,13.15
2022-08-30T15:29:56.890Z,14.15
2022-08-30T15:32:58.795Z,18.95
2022-08-30T15:36:02.118Z,12.02
2022-08-30T15:39:07.365Z,10.80
2022-08-30T15:42:09.340Z,9.88
2022-08-30T15:45:13.913Z,12.10
2022-08-30T15:48:19.788Z,11.13
2022-08-30T15:51:22.862Z,9.82
2022-08-30T15:54:26.569Z,13.40
2022-08-30T15:57:28.855Z,12.75
2022-08-30T16:00:31.829Z,10.05
2022-08-30T16:03:35.419Z,11.32
2022-08-30T16:06:40.518Z,9.50
2022-08-30T16:09:43.828Z,13.85
2022-08-30T16:12:45.783Z,11.17
2022-08-30T16:15:47.733Z,11.67
2022-08-30T16:18:54.266Z,8.90
2022-08-30T16:21:57.223Z,12.43
2022-08-30T16:24:59.093Z,9.00
2022-08-30T16:28:01.518Z,18.45
2022-08-30T16:31:06.102Z,10.57
2022-08-30T16:34:10.522Z,14.73
2022-08-30T16:37:12.665Z,15.43
2022-08-30T16:40:14.832Z,12.68
2022-08-30T16:43:17.206Z,12.50
2022-08-30T16:46:22.954Z,14.48
2022-08-30T16:49:25.780Z,12.77
2022-08-30T16:52:27.789Z,15.18
2022-08-30T16:55:29.959Z,19.15
2022-08-30T16:58:32.002Z,16.08
2022-08-30T17:01:39.632Z,14.10
2022-08-30T17:04:43.997Z,15.10
2022-08-30T17:07:45.968Z,17.95
2022-08-30T17:10:49.908Z,17.33
2022-08-30T17:13:52.626Z,19.15
2022-08-30T17:16:54.684Z,17.30
2022-08-30T17:19:56.698Z,16.67
2022-08-30T17:22:59.521Z,13.53
2022-08-30T17:26:04.499Z,22.80
2022-08-30T17:29:07.799Z,16.33
2022-08-30T17:32:12.073Z,18.65
2022-08-30T17:35:14.903Z,16.60
2022-08-30T17:38:20.511Z,19.20
2022-08-30T17:41:22.629Z,16.35
2022-08-30T17:44:29.062Z,21.58
2022-08-30T17:47:32.388Z,13.88
2022-08-30T17:50:38.455Z,15.13
2022-08-30T17:53:40.685Z,15.48
2022-08-30T17:56:43.723Z,22.38
2022-08-30T17:59:46.095Z,16.85
2022-08-30T18:02:48.123Z,26.55
2022-08-30T18:05:50.945Z,23.02
2022-08-30T18:08:52.879Z,28.52
2022-08-30T18:11:56.466Z,33.90
2022-08-30T18:14:58.748Z,29.70
2022-08-30T18:18:00.891Z,25.17
2022-08-30T18:21:13.869Z,23.98
2022-08-30T18:24:16.827Z,21.73
2022-08-30T18:27:18.871Z,25.02
2022-08-30T18:30:21.032Z,21.52
2022-08-30T18:33:25.051Z,20.13
2022-08-30T18:36:28.283Z,17.95
2022-08-30T18:39:34.485Z,17.48
2022-08-30T18:42:36.993Z,16.70
2022-08-30T18:45:43.490Z,22.33
2022-08-30T18:48:46.770Z,15.82
2022-08-30T18:51:49.459Z,16.83
2022-08-30T18:58:15.016Z,16.92
2022-08-30T19:01:22.906Z,16.00
2022-08-30T19:04:35.132Z,23.80
2022-08-30T19:07:39.057Z,12.27
2022-08-30T19:10:41.772Z,12.20
2022-08-30T19:13:45.102Z,11.98
2022-08-30T19:16:47.187Z,14.05
2022-08-30T19:19:52.117Z,11.68
2022-08-30T19:23:09.294Z,13.65
2022-08-30T19:26:12.623Z,12.50
2022-08-30T19:29:16.453Z,11.55
2022-08-30T19:32:18.680Z,11.40
2022-08-30T19:35:22.091Z,17.88
2022-08-30T19:38:24.418Z,11.75
2022-08-30T19:41:28.407Z,13.38
2022-08-30T19:44:30.433Z,15.68
2022-08-30T19:47:34.127Z,12.80
2022-08-30T19:50:36.958Z,15.98
2022-08-30T19:53:40.901Z,15.27
2022-08-30T19:56:43.655Z,13.15
2022-08-30T19:59:45.664Z,16.03
2022-08-30T20:02:50.623Z,12.30
2022-08-30T20:05:53.404Z,14.73
2022-08-30T20:08:57.840Z,16.20
2022-08-30T20:12:01.583Z,19.10
2022-08-30T20:15:09.343Z,19.20
2022-08-30T20:18:13.474Z,20.08
2022-08-30T20:21:17.021Z,15.20
2022-08-30T20:24:19.621Z,19.02
2022-08-30T20:24:29.874Z,19.33
2022-08-30T20:27:21.538Z,15.88
2022-08-30T20:30:23.452Z,14.32
2022-08-30T20:33:26.890Z,15.98
2022-08-30T20:36:29.152Z,17.60
2022-08-30T20:39:31.558Z,17.03
2022-08-30T20:42:33.638Z,16.60
2022-08-30T20:45:37.228Z,15.45
2022-08-30T20:48:39.661Z,15.98
2022-08-30T20:51:42.481Z,16.70
2022-08-30T20:54:45.088Z,13.45
2022-08-30T20:57:47.337Z,12.63
2022-08-30T21:00:53.983Z,14.73
2022-08-30T21:03:55.993Z,15.48
2022-08-30T21:07:02.324Z,15.98
2022-08-30T21:10:05.644Z,19.45
2022-08-30T21:13:09.159Z,15.05
2022-08-30T21:16:12.388Z,16.77
2022-08-30T21:19:14.389Z,16.25
2022-08-30T21:22:16.296Z,19.27
2022-08-30T21:25:18.586Z,17.50
2022-08-30T21:28:20.547Z,25.67
2022-08-30T21:31:26.576Z,17.58
2022-08-30T21:34:28.542Z,18.50
2022-08-30T21:37:35.910Z,16.30
2022-08-30T21:40:38.291Z,14.63
2022-08-30T21:43:40.402Z,16.52
2022-08-30T21:46:43.639Z,15.00
2022-08-30T21:49:45.711Z,17.30
2022-08-30T21:52:48.327Z,13.95
2022-08-30T21:55:51.011Z,13.20
2022-08-30T21:58:54.884Z,14.50
2022-08-30T22:04:59.330Z,15.63
2022-08-30T22:08:01.656Z,13.77
2022-08-30T22:11:08.323Z,23.73
2022-08-30T22:14:11.975Z,16.95
2022-08-30T22:17:14.002Z,14.35
2022-08-30T22:20:18.711Z,14.45
2022-08-30T22:23:20.941Z,14.30
2022-08-30T22:26:24.101Z,15.27
2022-08-30T22:32:28.735Z,16.17
2022-08-30T22:35:30.729Z,18.25
2022-08-30T22:38:32.991Z,16.35
2022-08-30T22:41:36.189Z,14.27
2022-08-30T22:47:40.121Z,13.95
2022-08-30T22:50:42.324Z,16.23
2022-08-30T22:53:45.534Z,14.02
2022-08-30T22:59:49.604Z,12.40
2022-08-30T23:02:53.124Z,14.05
2022-08-30T23:05:55.345Z,14.65
2022-08-30T23:08:57.817Z,13.48
2022-08-30T23:11:59.848Z,15.10
2022-08-30T23:15:01.727Z,13.38
2022-08-30T23:18:04.503Z,14.73
2022-08-30T23:21:18.339Z,19.63
2022-08-30T23:24:38.550Z,15.15
2022-08-30T23:28:02.723Z,13.27
2022-08-30T23:31:36.271Z,12.95
2022-08-30T23:34:57.147Z,14.07
2022-08-30T23:38:21.397Z,16.17
2022-08-30T23:41:41.853Z,14.07
2022-08-30T23:45:02.496Z,13.30
2022-08-30T23:48:22.880Z,12.27
2022-08-30T23:51:43.225Z,12.05
2022-08-30T23:55:03.584Z,12.20
2022-08-30T23:58:24.026Z,14.02
